createdAt,value
2018-04-29T00:00:22.778Z,100216.98
2018-04-29T00:02:50.246Z,100215.32
2018-04-29T00:05:17.762Z,100200.66
2018-04-29T00:07:45.271Z,100199.32
2018-04-29T00:10:12.784Z,100201.77
2018-04-29T00:12:40.269Z,100199.13
2018-04-29T00:15:07.798Z,100197.56
2018-04-29T00:17:35.309Z,100188.59
2018-04-29T00:20:02.815Z,100191.78
2018-04-29T00:22:30.311Z,100190.69
2018-04-29T00:24:57.804Z,100191.52
2018-04-29T00:27:25.315Z,100194.64
2018-04-29T00:29:52.801Z,100196.70
2018-04-29T00:32:20.313Z,100196.61
2018-04-29T00:34:47.831Z,100197.45
2018-04-29T00:37:15.312Z,100192.30
2018-04-29T00:39:42.784Z,100188.80
2018-04-29T00:42:10.318Z,100195.25
2018-04-29T00:44:37.784Z,100192.34
2018-04-29T00:47:05.279Z,100196.30
2018-04-29T00:49:32.776Z,100202.62
2018-04-29T00:52:07.016Z,100203.47
2018-04-29T00:54:34.530Z,100197.24
2018-04-29T00:57:02.034Z,100191.97
2018-04-29T00:59:29.561Z,100196.48
2018-04-29T01:01:57.054Z,100190.05
2018-04-29T01:04:24.541Z,100193.70
2018-04-29T01:06:52.057Z,100193.45
2018-04-29T01:09:19.556Z,100192.08
2018-04-29T01:11:47.030Z,100188.72
2018-04-29T01:14:14.519Z,100187.06
2018-04-29T01:16:42.037Z,100177.59
2018-04-29T01:19:09.520Z,100176.27
2018-04-29T01:21:37.003Z,100180.39
2018-04-29T01:24:04.496Z,100180.34
2018-04-29T01:26:31.976Z,100177.48
2018-04-29T01:28:59.468Z,100181.38
2018-04-29T01:31:26.948Z,100184.58
2018-04-29T01:33:54.452Z,100181.30
2018-04-29T01:36:21.955Z,100183.83
2018-04-29T01:38:49.451Z,100175.75
2018-04-29T01:41:16.932Z,100181.31
2018-04-29T01:43:44.428Z,100183.42
2018-04-29T01:46:11.919Z,100182.30
2018-04-29T01:48:39.435Z,100188.78
2018-04-29T01:51:06.934Z,100189.98
2018-04-29T01:53:34.427Z,100182.30
2018-04-29T01:56:01.914Z,100189.56
2018-04-29T01:58:29.470Z,100189.56
2018-04-29T02:00:56.932Z,100185.92
2018-04-29T02:03:24.399Z,100188.05
2018-04-29T02:05:51.897Z,100193.15
2018-04-29T02:08:19.446Z,100192.16
2018-04-29T02:10:46.981Z,100193.94
2018-04-29T02:13:14.490Z,100196.13
2018-04-29T02:15:41.976Z,100190.91
2018-04-29T02:18:09.464Z,100192.86
2018-04-29T02:20:36.944Z,100188.12
2018-04-29T02:23:04.442Z,100187.25
2018-04-29T02:25:31.964Z,100181.36
2018-04-29T02:27:59.458Z,100187.26
2018-04-29T02:30:26.960Z,100187.95
2018-04-29T02:32:54.453Z,100185.83
2018-04-29T02:35:21.957Z,100173.69
2018-04-29T02:37:49.436Z,100173.53
2018-04-29T02:40:16.947Z,100166.51
2018-04-29T02:42:44.461Z,100160.45
2018-04-29T02:45:11.929Z,100161.20
2018-04-29T02:47:39.397Z,100155.98
2018-04-29T02:50:06.930Z,100153.74
2018-04-29T02:52:34.451Z,100159.34
2018-04-29T02:55:01.926Z,100159.58
2018-04-29T02:57:29.418Z,100159.25
2018-04-29T02:59:56.885Z,100152.20
2018-04-29T03:02:24.348Z,100157.51
2018-04-29T03:04:51.820Z,100150.08
2018-04-29T03:07:19.313Z,100152.30
2018-04-29T03:09:46.810Z,100149.84
2018-04-29T03:12:14.285Z,100151.48
2018-04-29T03:14:41.762Z,100149.57
2018-04-29T03:17:09.298Z,100149.16
2018-04-29T03:19:36.776Z,100151.92
2018-04-29T03:22:04.251Z,100152.46
2018-04-29T03:24:31.804Z,100155.52
2018-04-29T03:26:59.303Z,100157.56
2018-04-29T03:29:26.877Z,100145.77
2018-04-29T03:31:54.364Z,100147.94
2018-04-29T03:34:21.862Z,100150.47
2018-04-29T03:36:49.336Z,100152.03
2018-04-29T03:39:16.796Z,100157.42
2018-04-29T03:41:44.286Z,100160.34
2018-04-29T03:44:11.783Z,100157.41
2018-04-29T03:46:39.260Z,100147.96
2018-04-29T03:49:06.758Z,100147.77
2018-04-29T03:51:34.238Z,100142.02
2018-04-29T03:54:01.708Z,100143.72
2018-04-29T03:56:29.224Z,100137.08
2018-04-29T03:59:08.335Z,100146.00
2018-04-29T04:01:51.279Z,100138.30
2018-04-29T04:04:15.235Z,100136.59
2018-04-29T04:06:42.709Z,100132.88
2018-04-29T04:09:10.192Z,100133.91
2018-04-29T04:11:37.707Z,100133.19
2018-04-29T04:14:05.188Z,100132.50
2018-04-29T04:16:32.677Z,100126.82
2018-04-29T04:19:00.155Z,100127.06
2018-04-29T04:21:27.661Z,100126.89
2018-04-29T04:23:55.160Z,100135.94
2018-04-29T04:26:22.672Z,100135.63
2018-04-29T04:28:50.184Z,100136.47
2018-04-29T04:31:17.664Z,100136.50
2018-04-29T04:33:45.145Z,100137.30
2018-04-29T04:36:12.630Z,100135.56
2018-04-29T04:38:40.084Z,100140.53
2018-04-29T04:41:07.575Z,100143.58
2018-04-29T04:43:35.072Z,100145.10
2018-04-29T04:46:02.540Z,100148.61
2018-04-29T04:48:30.016Z,100149.51
2018-04-29T04:50:57.558Z,100151.41
2018-04-29T04:53:25.048Z,100148.30
2018-04-29T04:55:52.618Z,100153.36
2018-04-29T04:58:20.111Z,100152.94
2018-04-29T05:00:47.581Z,100153.91
2018-04-29T05:03:15.077Z,100156.06
2018-04-29T05:05:42.552Z,100163.69
2018-04-29T05:08:10.020Z,100160.57
2018-04-29T05:10:37.516Z,100156.27
2018-04-29T05:13:05.000Z,100154.50
2018-04-29T05:15:32.485Z,100153.95
2018-04-29T05:17:59.958Z,100148.98
2018-04-29T05:20:27.458Z,100154.78
2018-04-29T05:22:54.971Z,100161.36
2018-04-29T05:25:22.496Z,100162.20
2018-04-29T05:27:49.982Z,100161.49
2018-04-29T05:30:17.784Z,100165.16
2018-04-29T05:32:45.518Z,100158.36
2018-04-29T05:35:13.146Z,100153.98
2018-04-29T05:37:40.708Z,100159.78
2018-04-29T05:40:08.192Z,100158.77
2018-04-29T05:42:35.686Z,100156.39
2018-04-29T05:45:03.189Z,100157.48
2018-04-29T05:47:30.843Z,100161.78
2018-04-29T05:49:58.332Z,100158.13
2018-04-29T05:52:25.829Z,100160.48
2018-04-29T05:54:53.339Z,100160.87
2018-04-29T05:57:20.829Z,100160.00
2018-04-29T05:59:48.328Z,100157.72
2018-04-29T06:02:15.839Z,100158.59
2018-04-29T06:04:43.364Z,100162.93
2018-04-29T06:07:10.892Z,100169.22
2018-04-29T06:09:39.272Z,100172.28
2018-04-29T06:12:06.778Z,100171.50
2018-04-29T06:14:34.442Z,100175.38
2018-04-29T06:17:02.005Z,100177.91
2018-04-29T06:19:29.534Z,100177.41
2018-04-29T06:21:57.221Z,100170.25
2018-04-29T06:24:24.784Z,100167.78
2018-04-29T06:26:52.471Z,100165.94
2018-04-29T06:29:20.526Z,100162.83
2018-04-29T06:31:48.002Z,100156.48
2018-04-29T06:34:15.487Z,100157.29
2018-04-29T06:36:43.037Z,100146.45
2018-04-29T06:39:12.352Z,100145.87
2018-04-29T06:41:40.889Z,100146.83
2018-04-29T06:44:08.650Z,100143.26
2018-04-29T06:46:36.171Z,100155.80
2018-04-29T06:49:03.742Z,100152.14
2018-04-29T06:51:31.388Z,100147.84
2018-04-29T06:53:58.947Z,100140.94
2018-04-29T06:56:26.467Z,100134.34
2018-04-29T06:58:54.095Z,100134.58
2018-04-29T07:01:21.674Z,100123.79
2018-04-29T07:03:49.296Z,100123.73
2018-04-29T07:06:16.768Z,100124.05
2018-04-29T07:08:44.260Z,100128.73
2018-04-29T07:11:11.824Z,100118.61
2018-04-29T07:13:40.365Z,100112.71
2018-04-29T07:16:07.850Z,100119.38
2018-04-29T07:18:35.360Z,100117.34
2018-04-29T07:21:03.403Z,100121.16
2018-04-29T07:23:30.925Z,100119.20
2018-04-29T07:25:58.482Z,100124.78
2018-04-29T07:28:26.391Z,100134.23
2018-04-29T07:30:53.940Z,100123.35
2018-04-29T07:33:21.454Z,100123.23
2018-04-29T07:35:48.942Z,100123.13
2018-04-29T07:38:16.614Z,100119.21
2018-04-29T07:40:44.179Z,100112.03
2018-04-29T07:43:11.694Z,100103.66
2018-04-29T07:45:39.402Z,100097.14
2018-04-29T07:48:06.962Z,100099.15
2018-04-29T07:50:34.818Z,100094.77
2018-04-29T07:53:02.302Z,100087.81
2018-04-29T07:55:30.147Z,100088.52
2018-04-29T07:57:57.666Z,100089.33
2018-04-29T08:00:25.164Z,100089.03
2018-04-29T08:02:52.680Z,100082.43
2018-04-29T08:05:20.229Z,100079.59
2018-04-29T08:07:47.731Z,100085.69
2018-04-29T08:10:15.326Z,100092.30
2018-04-29T08:12:42.843Z,100092.26
2018-04-29T08:15:10.348Z,100088.78
2018-04-29T08:17:37.826Z,100092.54
2018-04-29T08:20:05.312Z,100098.49
2018-04-29T08:22:32.842Z,100112.47
2018-04-29T08:25:00.352Z,100107.50
2018-04-29T08:27:27.922Z,100108.33
2018-04-29T08:29:55.525Z,100103.62
2018-04-29T08:32:23.017Z,100095.17
2018-04-29T08:34:50.530Z,100094.15
2018-04-29T08:37:18.025Z,100095.48
2018-04-29T08:39:45.516Z,100096.33
2018-04-29T08:42:13.039Z,100090.25
2018-04-29T08:44:40.524Z,100090.75
2018-04-29T08:47:08.000Z,100094.06
2018-04-29T08:49:35.511Z,100098.06
2018-04-29T08:52:03.019Z,100097.28
2018-04-29T08:54:30.527Z,100095.88
2018-04-29T08:56:58.033Z,100087.59
2018-04-29T08:59:25.552Z,100087.59
2018-04-29T09:01:53.053Z,100084.19
2018-04-29T09:04:20.553Z,100092.73
2018-04-29T09:06:48.047Z,100079.66
2018-04-29T09:09:15.527Z,100072.66
2018-04-29T09:11:43.334Z,100084.67
2018-04-29T09:14:10.811Z,100089.13
2018-04-29T09:16:38.443Z,100087.70
2018-04-29T09:19:05.959Z,100078.59
2018-04-29T09:21:33.745Z,100081.55
2018-04-29T09:24:01.312Z,100076.33
2018-04-29T09:26:28.802Z,100086.16
2018-04-29T09:28:56.334Z,100087.39
2018-04-29T09:31:23.827Z,100083.08
2018-04-29T09:33:51.338Z,100081.84
2018-04-29T09:36:18.814Z,100083.55
2018-04-29T09:38:46.311Z,100078.11
2018-04-29T09:41:13.850Z,100079.15
2018-04-29T09:43:41.503Z,100065.86
2018-04-29T09:46:08.963Z,100063.58
2018-04-29T09:48:36.466Z,100055.76
2018-04-29T09:51:03.936Z,100058.94
2018-04-29T09:53:31.464Z,100058.44
2018-04-29T09:55:58.977Z,100071.44
2018-04-29T09:58:26.444Z,100074.16
2018-04-29T10:00:57.839Z,100073.27
2018-04-29T10:03:25.391Z,100068.42
2018-04-29T10:05:52.933Z,100068.33
2018-04-29T10:08:20.424Z,100070.47
2018-04-29T10:10:47.908Z,100058.05
2018-04-29T10:13:15.392Z,100059.98
2018-04-29T10:15:42.917Z,100061.55
2018-04-29T10:18:10.424Z,100059.72
2018-04-29T10:20:37.938Z,100059.34
2018-04-29T10:23:05.447Z,100054.75
2018-04-29T10:25:32.928Z,100056.16
2018-04-29T10:28:00.430Z,100046.58
2018-04-29T10:30:27.914Z,100052.59
2018-04-29T10:32:55.467Z,100051.66
2018-04-29T10:35:22.897Z,100054.90
2018-04-29T10:37:50.383Z,100052.70
2018-04-29T10:40:17.860Z,100049.16
2018-04-29T10:42:45.457Z,100047.89
2018-04-29T10:45:12.933Z,100048.62
2018-04-29T10:47:42.248Z,100046.66
2018-04-29T10:50:09.751Z,100043.84
2018-04-29T10:52:37.237Z,100052.05
2018-04-29T10:55:04.716Z,100037.05
2018-04-29T10:57:32.308Z,100034.33
2018-04-29T10:59:59.852Z,100038.05
2018-04-29T11:02:27.343Z,100038.63
2018-04-29T11:04:54.954Z,100037.03
2018-04-29T11:07:22.468Z,100031.44
2018-04-29T11:09:49.952Z,100035.73
2018-04-29T11:12:17.443Z,100038.03
2018-04-29T11:14:44.955Z,100033.95
2018-04-29T11:17:12.503Z,100040.84
2018-04-29T11:19:39.987Z,100034.63
2018-04-29T11:22:07.474Z,100028.48
2018-04-29T11:24:35.005Z,100026.66
2018-04-29T11:27:02.547Z,100036.54
2018-04-29T11:29:29.980Z,100036.47
2018-04-29T11:31:57.471Z,100038.77
2018-04-29T11:34:24.969Z,100034.30
2018-04-29T11:36:52.499Z,100032.61
2018-04-29T11:39:20.017Z,100018.38
2018-04-29T11:41:47.623Z,100008.26
2018-04-29T11:44:15.168Z,100008.23
2018-04-29T11:46:42.646Z,100019.83
2018-04-29T11:49:10.141Z,100013.23
2018-04-29T11:51:37.684Z,100010.22
2018-04-29T11:54:05.174Z,99997.91
2018-04-29T11:56:32.659Z,100001.88
2018-04-29T11:59:00.150Z,99993.45
2018-04-29T12:01:27.637Z,99985.61
2018-04-29T12:03:55.274Z,99991.38
2018-04-29T12:06:22.777Z,100001.97
2018-04-29T12:08:50.321Z,99995.77
2018-04-29T12:11:17.818Z,99993.94
2018-04-29T12:13:45.505Z,99990.90
2018-04-29T12:16:12.996Z,99985.59
2018-04-29T12:18:40.489Z,99979.72
2018-04-29T12:21:08.000Z,99982.61
2018-04-29T12:23:35.474Z,99969.67
2018-04-29T12:26:02.974Z,99967.85
2018-04-29T12:28:30.652Z,99966.16
2018-04-29T12:30:58.160Z,99968.63
2018-04-29T12:33:25.647Z,99964.38
2018-04-29T12:35:53.231Z,99960.63
2018-04-29T12:38:20.810Z,99960.73
2018-04-29T12:40:48.330Z,99949.95
2018-04-29T12:43:15.833Z,99953.77
2018-04-29T12:45:43.336Z,99952.19
2018-04-29T12:48:10.820Z,99954.67
2018-04-29T12:50:38.383Z,99943.36
2018-04-29T12:53:05.886Z,99941.58
2018-04-29T12:55:33.368Z,99939.59
2018-04-29T12:58:00.886Z,99925.13
2018-04-29T13:00:28.390Z,99919.27
2018-04-29T13:02:55.899Z,99904.08
2018-04-29T13:05:23.556Z,99895.46
2018-04-29T13:07:51.063Z,99867.75
2018-04-29T13:10:18.568Z,99854.64
2018-04-29T13:12:46.049Z,99867.16
2018-04-29T13:15:13.611Z,99873.14
2018-04-29T13:17:41.153Z,99860.86
2018-04-29T13:20:08.685Z,99858.30
2018-04-29T13:22:36.161Z,99846.48
2018-04-29T13:25:03.646Z,99840.23
2018-04-29T13:27:31.131Z,99834.24
2018-04-29T13:29:58.636Z,99835.20
2018-04-29T13:32:27.117Z,99830.08
2018-04-29T13:34:54.660Z,99829.43
2018-04-29T13:37:22.202Z,99822.25
2018-04-29T13:39:49.690Z,99818.48
2018-04-29T13:42:17.232Z,99816.45
2018-04-29T13:44:44.660Z,99808.47
2018-04-29T13:47:12.187Z,99805.93
2018-04-29T13:49:39.676Z,99801.07
2018-04-29T13:52:07.196Z,99802.30
2018-04-29T13:54:34.731Z,99801.45
2018-04-29T13:57:02.245Z,99791.23
2018-04-29T13:59:29.815Z,99794.38
2018-04-29T14:01:57.391Z,99788.33
2018-04-29T14:04:24.851Z,99785.01
2018-04-29T14:06:52.349Z,99785.34
2018-04-29T14:09:19.842Z,99781.66
2018-04-29T14:11:47.357Z,99770.88
2018-04-29T14:14:14.852Z,99773.60
2018-04-29T14:16:42.359Z,99763.35
2018-04-29T14:19:09.878Z,99753.81
2018-04-29T14:21:37.398Z,99738.68
2018-04-29T14:24:04.887Z,99736.87
2018-04-29T14:26:32.361Z,99739.25
2018-04-29T14:28:59.851Z,99733.58
2018-04-29T14:31:27.332Z,99730.48
2018-04-29T14:33:54.832Z,99724.93
2018-04-29T14:36:22.324Z,99729.34
2018-04-29T14:38:49.820Z,99728.29
2018-04-29T14:41:17.322Z,99723.73
2018-04-29T14:43:44.951Z,99728.10
2018-04-29T14:46:12.730Z,99723.33
2018-04-29T14:48:40.242Z,99726.69
2018-04-29T14:51:07.929Z,99716.88
2018-04-29T14:53:35.452Z,99719.83
2018-04-29T14:56:02.950Z,99716.33
2018-04-29T14:58:30.438Z,99716.03
2018-04-29T15:00:57.954Z,99714.31
2018-04-29T15:03:25.458Z,99716.77
2018-04-29T15:05:52.971Z,99715.95
2018-04-29T15:08:20.519Z,99712.19
2018-04-29T15:10:48.186Z,99704.99
2018-04-29T15:13:15.713Z,99696.12
2018-04-29T15:15:43.207Z,99696.12
2018-04-29T15:18:22.349Z,99703.09
2018-04-29T15:20:49.878Z,99701.59
2018-04-29T15:23:17.503Z,99698.43
2018-04-29T15:25:45.234Z,99699.89
2018-04-29T15:28:12.760Z,99701.48
2018-04-29T15:30:40.263Z,99696.45
2018-04-29T15:33:07.752Z,99688.02
2018-04-29T15:35:35.388Z,99687.50
2018-04-29T15:38:02.886Z,99686.08
2018-04-29T15:40:30.653Z,99688.58
2018-04-29T15:42:58.158Z,99683.22
2018-04-29T15:45:25.766Z,99676.05
2018-04-29T15:47:53.276Z,99675.48
2018-04-29T15:50:21.085Z,99671.89
2018-04-29T15:52:48.850Z,99674.80
2018-04-29T15:55:16.416Z,99670.25
2018-04-29T15:57:44.062Z,99665.22
2018-04-29T16:00:11.587Z,99663.13
2018-04-29T16:02:39.098Z,99664.92
2018-04-29T16:05:06.585Z,99668.84
2018-04-29T16:07:34.068Z,99662.47
2018-04-29T16:10:01.578Z,99668.98
2018-04-29T16:12:29.073Z,99674.47
2018-04-29T16:14:56.573Z,99675.44
2018-04-29T16:17:24.088Z,99682.70
2018-04-29T16:19:51.568Z,99672.98
2018-04-29T16:22:19.083Z,99675.36
2018-04-29T16:24:46.593Z,99691.72
2018-04-29T16:27:14.077Z,99689.03
2018-04-29T16:29:41.737Z,99685.35
2018-04-29T16:32:09.437Z,99695.41
2018-04-29T16:34:36.934Z,99680.61
2018-04-29T16:37:04.408Z,99676.66
2018-04-29T16:39:31.952Z,99678.94
2018-04-29T16:41:59.599Z,99673.53
2018-04-29T16:44:27.089Z,99667.05
2018-04-29T16:46:54.610Z,99659.64
2018-04-29T16:49:22.144Z,99657.81
2018-04-29T16:51:49.714Z,99652.03
2018-04-29T16:54:17.215Z,99644.66
2018-04-29T16:56:44.697Z,99644.84
2018-04-29T16:59:12.184Z,99642.64
2018-04-29T17:01:39.954Z,99633.89
2018-04-29T17:04:07.586Z,99631.05
2018-04-29T17:06:35.083Z,99620.48
2018-04-29T17:09:02.636Z,99617.49
2018-04-29T17:11:30.130Z,99618.31
2018-04-29T17:13:57.652Z,99612.50
2018-04-29T17:16:25.136Z,99604.23
2018-04-29T17:18:52.624Z,99611.65
2018-04-29T17:21:20.106Z,99610.72
2018-04-29T17:23:47.600Z,99600.21
2018-04-29T17:26:15.074Z,99610.79
2018-04-29T17:28:42.550Z,99600.22
2018-04-29T17:31:10.076Z,99599.33
2018-04-29T17:33:37.544Z,99597.98
2018-04-29T17:36:05.071Z,99598.05
2018-04-29T17:38:32.547Z,99592.88
2018-04-29T17:41:00.029Z,99591.05
2018-04-29T17:43:27.524Z,99585.17
2018-04-29T17:45:55.023Z,99584.05
2018-04-29T17:48:22.506Z,99578.98
2018-04-29T17:50:50.000Z,99573.54
2018-04-29T17:53:17.529Z,99573.61
2018-04-29T17:55:45.008Z,99566.79
2018-04-29T17:58:12.515Z,99567.27
2018-04-29T18:00:40.035Z,99562.72
2018-04-29T18:03:07.511Z,99569.11
2018-04-29T18:05:35.012Z,99564.08
2018-04-29T18:08:02.548Z,99558.52
2018-04-29T18:10:30.041Z,99560.30
2018-04-29T18:12:57.606Z,99556.27
2018-04-29T18:15:25.299Z,99551.30
2018-04-29T18:17:52.807Z,99548.75
2018-04-29T18:20:20.389Z,99549.00
2018-04-29T18:22:47.889Z,99550.91
2018-04-29T18:25:15.365Z,99552.13
2018-04-29T18:27:42.889Z,99551.70
2018-04-29T18:30:10.359Z,99547.61
2018-04-29T18:32:37.872Z,99545.75
2018-04-29T18:35:05.341Z,99547.05
2018-04-29T18:37:32.858Z,99543.64
2018-04-29T18:40:00.326Z,99546.48
2018-04-29T18:42:28.430Z,99541.97
2018-04-29T18:44:55.908Z,99540.29
2018-04-29T18:47:23.419Z,99537.31
2018-04-29T18:49:52.893Z,99535.09
2018-04-29T18:52:20.415Z,99531.39
2018-04-29T18:54:47.922Z,99538.00
2018-04-29T18:57:15.430Z,99533.07
2018-04-29T18:59:42.930Z,99533.92
2018-04-29T19:02:10.436Z,99535.96
2018-04-29T19:04:37.958Z,99528.47
2018-04-29T19:07:05.507Z,99524.88
2018-04-29T19:09:33.594Z,99529.83
2018-04-29T19:12:01.163Z,99526.75
2018-04-29T19:14:28.749Z,99527.67
2018-04-29T19:16:56.329Z,99523.47
2018-04-29T19:19:23.802Z,99517.72
2018-04-29T19:21:51.510Z,99513.39
2018-04-29T19:24:19.157Z,99514.17
2018-04-29T19:26:47.625Z,99516.42
2018-04-29T19:29:15.132Z,99508.91
2018-04-29T19:31:42.728Z,99506.26
2018-04-29T19:34:10.351Z,99499.02
2018-04-29T19:36:38.125Z,99503.43
2018-04-29T19:39:05.651Z,99496.30
2018-04-29T19:41:37.382Z,99494.72
2018-04-29T19:44:04.893Z,99491.02
2018-04-29T19:46:32.417Z,99488.34
2018-04-29T19:48:59.946Z,99481.38
2018-04-29T19:51:27.476Z,99475.34
2018-04-29T19:53:54.972Z,99478.45
2018-04-29T19:56:22.489Z,99480.08
2018-04-29T19:58:50.038Z,99474.39
2018-04-29T20:01:17.546Z,99476.46
2018-04-29T20:03:45.068Z,99471.00
2018-04-29T20:06:12.781Z,99473.07
2018-04-29T20:08:40.301Z,99467.48
2018-04-29T20:11:07.851Z,99455.97
2018-04-29T20:13:35.336Z,99456.63
2018-04-29T20:16:02.842Z,99454.33
2018-04-29T20:18:30.338Z,99447.38
2018-04-29T20:20:57.913Z,99451.11
2018-04-29T20:23:25.517Z,99445.67
2018-04-29T20:25:53.030Z,99442.91
2018-04-29T20:28:21.229Z,99440.26
2018-04-29T20:30:48.907Z,99441.37
2018-04-29T20:33:16.508Z,99438.90
2018-04-29T20:35:44.010Z,99428.46
2018-04-29T20:38:11.567Z,99426.91
2018-04-29T20:40:39.165Z,99420.59
2018-04-29T20:43:06.991Z,99418.34
2018-04-29T20:48:14.689Z,99404.25
2018-04-29T20:50:42.189Z,99407.91
2018-04-29T20:53:09.674Z,99395.39
2018-04-29T20:55:37.276Z,99393.56
2018-04-29T20:58:04.794Z,99387.72
2018-04-29T21:00:32.296Z,99381.14
2018-04-29T21:02:59.892Z,99384.71
2018-04-29T21:05:27.427Z,99374.05
2018-04-29T21:07:54.947Z,99373.80
2018-04-29T21:10:22.761Z,99367.09
2018-04-29T21:12:50.278Z,99353.39
2018-04-29T21:15:17.789Z,99358.97
2018-04-29T21:17:45.553Z,99352.64
2018-04-29T21:20:13.187Z,99343.65
2018-04-29T21:22:40.736Z,99339.47
2018-04-29T21:25:08.264Z,99338.08
2018-04-29T21:27:35.788Z,99327.88
2018-04-29T21:30:03.256Z,99327.10
2018-04-29T21:32:31.035Z,99316.97
2018-04-29T21:34:58.511Z,99313.75
2018-04-29T21:37:26.021Z,99308.44
2018-04-29T21:39:53.549Z,99314.63
2018-04-29T21:42:21.068Z,99307.29
2018-04-29T21:44:48.579Z,99305.58
2018-04-29T21:47:16.089Z,99293.73
2018-04-29T21:49:43.572Z,99295.23
2018-04-29T21:52:11.053Z,99296.12
2018-04-29T21:54:38.540Z,99286.63
2018-04-29T21:57:06.033Z,99284.67
2018-04-29T21:59:33.510Z,99280.74
2018-04-29T22:02:01.011Z,99269.47
2018-04-29T22:04:28.475Z,99272.19
2018-04-29T22:06:56.003Z,99266.25
2018-04-29T22:09:23.550Z,99270.28
2018-04-29T22:11:51.041Z,99260.71
2018-04-29T22:14:18.538Z,99254.97
2018-04-29T22:16:46.007Z,99252.14
2018-04-29T22:19:13.472Z,99241.77
2018-04-29T22:21:40.948Z,99234.11
2018-04-29T22:24:08.461Z,99228.30
2018-04-29T22:26:35.964Z,99222.96
2018-04-29T22:29:03.463Z,99208.45
2018-04-29T22:31:30.956Z,99211.65
2018-04-29T22:33:58.446Z,99202.89
2018-04-29T22:36:25.916Z,99212.09
2018-04-29T22:38:53.407Z,99202.16
2018-04-29T22:41:20.905Z,99204.31
2018-04-29T22:43:48.385Z,99205.77
2018-04-29T22:46:15.889Z,99200.50
2018-04-29T22:48:43.389Z,99200.50
2018-04-29T22:51:10.923Z,99201.47
2018-04-29T22:53:38.404Z,99204.81
2018-04-29T22:56:05.886Z,99201.02
2018-04-29T22:58:33.507Z,99200.30
2018-04-29T23:01:00.972Z,99196.62
2018-04-29T23:03:28.455Z,99193.17
2018-04-29T23:05:55.949Z,99188.02
2018-04-29T23:08:23.426Z,99181.03
2018-04-29T23:10:50.920Z,99186.34
2018-04-29T23:13:18.418Z,99181.61
2018-04-29T23:15:45.900Z,99180.20
2018-04-29T23:18:13.377Z,99171.47
2018-04-29T23:20:40.869Z,99165.77
2018-04-29T23:23:08.363Z,99158.33
2018-04-29T23:25:35.867Z,99151.75
2018-04-29T23:28:03.351Z,99146.80
2018-04-29T23:30:30.839Z,99142.80
2018-04-29T23:32:58.313Z,99140.55
2018-04-29T23:35:25.844Z,99131.92
2018-04-29T23:37:53.256Z,99124.63
2018-04-29T23:40:21.064Z,99128.51
2018-04-29T23:42:48.554Z,99114.48
2018-04-29T23:45:16.042Z,99122.89
2018-04-29T23:47:43.602Z,99121.84
2018-04-29T23:50:11.133Z,99120.73
2018-04-29T23:52:38.640Z,99122.34
2018-04-29T23:55:06.135Z,99112.97
2018-04-29T23:57:33.615Z,99107.50
